• Join FlightAware (Why Join?)
  • Login
  • US Flag 
01:26AM EDT


 

Airport Tracker/Info


-or-


 

Live Flight TrackerFlight Track Log ✈ SWA1182 ✈ 20-Apr-2013 ✈ KSJC - KONT

Flight Track Log - Related Links

Times and Time Zones

All times are in EDT time to prevent confusion due to time zone crossing. See the SWA1182 flight status page for this flight to view local times or setup timezone preferences in your user account.

Time Position Orientation Groundspeed Altitude Reporting Facility
EDT Latitude Longitude Course Direction KTS MPH feet Rate Location/Type
05:53PM 37.4167 -121.9667 141° Southeast 197 227 3,100  Level Northern Cal TRACON
05:54PM 37.4333 -121.9333 58° Northeast 221 254 5,000 1,560 Climbing Northern Cal TRACON
05:55PM 37.4000 -121.8833 130° Southeast 227 261 6,300 2,040 Climbing Northern Cal TRACON
05:56PM 37.3675 -121.8406 134° Southeast 229 264 8,400 3,060 Climbing Oakland Center
05:57PM 37.2986 -121.7642 139° Southeast 310 357 11,400 3,120 Climbing Oakland Center
05:58PM 36.9574 -121.3672 141° Southeast  Level Estimated
05:58PM 37.2242 -121.6803 138° Southeast 356 410 14,900  Level Oakland Center
05:59PM 37.1453 -121.5928 139° Southeast 377 434 18,200 2,880 Climbing Oakland Center
06:00PM 37.0644 -121.5044 139° Southeast 404 465 20,800 2,700 Climbing Oakland Center
06:01PM 36.9778 -121.4067 138° Southeast 419 482 23,700 2,760 Climbing Oakland Center
06:02PM 36.8864 -121.3083 139° Southeast 432 497 26,500 2,340 Climbing Oakland Center
06:03PM 36.7814 -121.1942 139° Southeast 452 520 28,500 1,980 Climbing Oakland Center
06:04PM 36.6811 -121.0881 140° Southeast 468 539 30,600 1,140 Climbing Oakland Center
06:05PM 36.5819 -120.9778 138° Southeast 475 547 30,900 600 Climbing Oakland Center
06:06PM 36.4811 -120.8686 139° Southeast 478 550 31,900 960 Climbing Oakland Center
06:07PM 36.3806 -120.7575 138° Southeast 482 555 32,900 540 Climbing Oakland Center
06:08PM 36.2806 -120.6486 139° Southeast 480 552 33,000  Climbing Oakland Center
06:09PM 36.1775 -120.5425 140° Southeast 480 552 33,000  Level Oakland Center
06:10PM 36.0839 -120.4183 133° Southeast 503 579 33,000  Level Oakland Center
06:11PM 35.9897 -120.2622 127° Southeast 469 540 33,000  Level Oakland Center
06:12PM 35.9089 -120.1278 127° Southeast 477 549 33,000  Level Oakland Center
06:13PM 35.8275 -119.9914 126° Southeast 486 559 33,000  Level Oakland Center
06:14PM 35.7450 -119.8556 127° Southeast 490 564 33,000  Level Oakland Center
06:15PM 35.6622 -119.7194 127° Southeast 493 567 33,000  Level Oakland Center
06:16PM 35.5792 -119.5850 127° Southeast 492 566 33,000  Level Oakland Center
06:17PM 35.4964 -119.4503 127° Southeast 491 565 33,000  Level Oakland Center
06:18PM 35.4136 -119.3172 127° Southeast 490 564 33,000  Level Oakland Center
06:18PM 35.4006 -119.2897 120° Southeast 488 562 33,000  Level Los Angeles Center
06:19PM 35.3031 -119.1314 127° Southeast 484 557 33,000  Level Los Angeles Center
06:20PM 35.2222 -119.0000 127° Southeast 483 556 33,000  Level Los Angeles Center
06:21PM 35.1386 -118.8689 128° Southeast 487 560 33,000 -180 Level Los Angeles Center
06:22PM 35.0564 -118.7375 127° Southeast 486 559 32,700 -1,080 Descending Los Angeles Center
06:23PM 34.9789 -118.6142 127° Southeast 464 534 30,800 -2,100 Descending Los Angeles Center
06:24PM 34.8961 -118.4806 127° Southeast 445 512 28,400 -2,100 Descending Los Angeles Center
06:25PM 34.8286 -118.3753 128° Southeast 432 497 26,500 -1,920 Descending Los Angeles Center
06:27PM 34.7581 -118.2653 128° Southeast 418 481 24,500 -1,680 Descending Los Angeles Center
06:28PM 34.6747 -118.1336 128° Southeast 413 475 23,100 -780 Descending Los Angeles Center
06:29PM 34.6111 -118.0219 125° Southeast 407 468 23,000 -360 Descending Los Angeles Center
06:30PM 34.5589 -117.9064 119° Southeast 395 455 22,400 -2,040 Descending Los Angeles Center
06:31PM 34.5053 -117.7903 119° Southeast 396 456 18,900 -3,000 Descending Los Angeles Center
06:32PM 34.4522 -117.6733 119° Southeast 399 459 16,300 -2,280 Descending Los Angeles Center
06:33PM 34.4011 -117.5650 120° Southeast 373 429 14,300 -1,620 Descending Los Angeles Center
06:34PM 34.3500 -117.4544 119° Southeast 336 387 13,100 -780 Descending Los Angeles Center
06:35PM 34.3017 -117.3819 129° Southeast 293 337 12,700 -840 Descending Los Angeles Center
06:36PM 34.2306 -117.3767 176° South 253 291 11,400 -1,740 Descending Los Angeles Center
06:37PM 34.1636 -117.3728 177° South 237 273 9,200 -2,460 Descending Los Angeles Center
06:38PM 34.0833 -117.3333 158° South 222 255 5,900 -2,040 Descending Southern California TRACON
06:39PM 34.0500 -117.3833 231° Southwest 194 223 4,700 -1,200 Descending Southern California TRACON
06:40PM 34.0500 -117.4500 270° West 190 219 3,500 -1,200 Descending Southern California TRACON
06:41PM 34.0500 -117.5000 270° West 166 191 2,400 -1,020 Descending Southern California TRACON
06:42PM 34.0500 -117.5500 270° West 132 152 1,600 -900 Descending Southern California TRACON
06:45PM 34.0500 -117.6000 270° West  Level FlightAware Approximate